Flight Track Log - Related Links

Times and Time Zones

All times are in EST time to prevent confusion due to time zone crossing. See the SWA2788 flight status page for this flight to view local times or setup timezone preferences in your user account.

Time Position Orientation Groundspeed Altitude Reporting Facility
EST Latitude Longitude Course Direction KTS MPH feet Rate Location/Type
Sun 08:51:33 AM 41.7833 -87.8000 242° Southwest 169 194 2,500  Level Chicago TRACON
Sun 08:52:53 AM 41.7472 -87.8919 242° Southwest 259 298 5,100 3,532 Climbing Chicago Center
Sun 08:53:54 AM 41.7069 -87.9983 243° Southwest 266 306 10,800 4,574 Climbing Chicago Center
Sun 08:54:55 AM 41.7664 -88.0178 346° North 258 297 14,400 2,754 Climbing Chicago Center
Sun 08:55:56 AM 41.8511 -88.0056 North 302 348 16,400 2,262 Climbing Chicago Center
Sun 08:56:57 AM 41.9444 -87.9867 North 333 383 19,000 2,361 Climbing Chicago Center
Sun 08:57:58 AM 42.0389 -87.9889 359° North 344 396 21,200 2,115 Climbing Chicago Center
Sun 08:58:59 AM 42.1353 -88.0150 349° North 352 405 23,300 1,869 Climbing Chicago Center
Sun 09:00:00 AM 42.2333 -88.0517 345° North 364 419 25,000 2,016 Climbing Chicago Center
Sun 09:01:01 AM 42.3167 -88.1361 323° Northwest 369 425 27,400 2,557 Climbing Chicago Center
Sun 09:02:02 AM 42.3928 -88.2150 323° Northwest 359 413 30,200 2,262 Climbing Chicago Center
Sun 09:03:03 AM 42.4831 -88.3050 324° Northwest 340 391 32,000 878 Climbing Chicago Center
Sun 09:04:05 AM 42.5581 -88.3797 324° Northwest 335 386 32,000  Level Chicago Center
Sun 09:05:06 AM 42.6306 -88.4542 323° Northwest 330 380 32,000  Level Chicago Center
Sun 09:06:07 AM 42.7033 -88.5278 323° Northwest 326 375 32,000  Level Chicago Center
Sun 09:07:08 AM 42.7753 -88.6011 323° Northwest 323 372 32,000  Level Chicago Center
Sun 09:08:09 AM 42.8481 -88.6744 324° Northwest 323 372 32,000  Level Chicago Center
Sun 09:09:10 AM 42.9206 -88.7483 323° Northwest 325 374 32,000  Level Chicago Center
Sun 09:10:12 AM 42.9942 -88.8236 323° Northwest 329 379 32,000  Level Chicago Center
Sun 09:11:13 AM 43.0675 -88.9006 323° Northwest 331 381 32,000  Level Chicago Center
Sun 09:12:14 AM 43.1422 -88.9744 324° Northwest 329 379 32,000  Level Chicago Center
Sun 09:13:15 AM 43.2169 -89.0528 323° Northwest 336 387 32,000  Level Chicago Center
Sun 09:14:17 AM 43.2914 -89.1300 323° Northwest 335 386 32,000  Level Chicago Center
Sun 09:15:18 AM 43.3644 -89.2061 323° Northwest 331 381 32,000  Level Chicago Center
Sun 09:16:19 AM 43.4533 -89.2989 323° Northwest 332 382 32,000  Level Chicago Center
Sun 09:17:21 AM 43.5267 -89.3761 323° Northwest 332 382 32,000  Level Chicago Center
Sun 09:18:22 AM 43.6011 -89.4544 323° Northwest 334 384 32,000  Level Chicago Center
Sun 09:19:23 AM 43.6739 -89.5311 323° Northwest 332 382 32,000  Level Chicago Center
Sun 09:20:25 AM 43.7481 -89.6100 322° Northwest 335 386 32,000  Level Chicago Center
Sun 09:21:26 AM 43.8214 -89.6875 323° Northwest 332 382 32,000  Level Chicago Center
Sun 09:22:27 AM 43.8939 -89.7658 322° Northwest 331 381 32,000  Level Chicago Center
Sun 09:23:29 AM 43.9675 -89.8442 323° Northwest 333 383 32,000  Level Chicago Center
Sun 09:24:30 AM 44.0406 -89.9228 322° Northwest 332 382 32,000  Level Chicago Center
Sun 09:25:31 AM 44.1064 -90.0117 316° Northwest 332 382 32,000  Level Chicago Center
Sun 09:26:20 AM 44.1572 -90.1114 305° West 322 371 32,000  Level Minneapolis Center
Sun 09:27:21 AM 44.2017 -90.2194 300° West 322 371 32,000  Level Minneapolis Center
Sun 09:28:22 AM 44.2467 -90.3267 300° West 321 369 32,000  Level Minneapolis Center
Sun 09:29:23 AM 44.2922 -90.4319 301° West 319 367 32,000  Level Minneapolis Center
Sun 09:30:24 AM 44.3361 -90.5392 300° West 319 367 32,000  Level Minneapolis Center
Sun 09:31:24 AM 44.3825 -90.6447 302° West 319 367 32,000  Level Minneapolis Center
Sun 09:32:25 AM 44.4289 -90.7508 302° West 320 368 32,000  Level Minneapolis Center
Sun 09:33:26 AM 44.4717 -90.8608 299° West 321 369 32,000  Level Minneapolis Center
Sun 09:34:27 AM 44.5203 -90.9775 300° West 321 369 32,000  Level Minneapolis Center
Sun 09:35:28 AM 44.5656 -91.0861 300° West 323 372 32,000  Level Minneapolis Center
Sun 09:36:29 AM 44.6092 -91.1961 299° West 324 373 32,000  Level Minneapolis Center
Sun 09:37:29 AM 44.6550 -91.3072 300° West 327 376 32,000 -347 Level Minneapolis Center
Sun 09:38:30 AM 44.6992 -91.4153 300° West 324 373 31,300 -1,475 Descending Minneapolis Center
Sun 09:39:31 AM 44.7411 -91.5183 300° West 312 359 29,000 -2,361 Descending Minneapolis Center
Sun 09:40:32 AM 44.7825 -91.6214 300° West 304 350 26,500 -2,361 Descending Minneapolis Center
Sun 09:41:33 AM 44.8228 -91.7203 300° West 298 343 24,200 -2,213 Descending Minneapolis Center
Sun 09:42:34 AM 44.8592 -91.8103 300° West 278 320 22,000 -2,066 Descending Minneapolis Center
Sun 09:43:35 AM 44.8928 -91.8967 299° West 257 296 20,000 -2,016 Descending Minneapolis Center
Sun 09:44:36 AM 44.9294 -91.9872 300° West 263 303 17,900 -2,311 Descending Minneapolis Center
Sun 09:45:37 AM 44.9731 -92.1003 299° West 272 313 15,300 -2,410 Descending Minneapolis Center
Sun 09:46:38 AM 45.0108 -92.1908 301° West 269 310 13,000 -2,115 Descending Minneapolis Center
Sun 09:47:39 AM 45.0456 -92.2817 298° West 266 306 11,000 -1,033 Descending Minneapolis Center
Sun 09:48:40 AM 45.0322 -92.3875 260° West 277 319 10,900 -787 Descending Minneapolis Center
Sun 09:49:41 AM 44.9906 -92.4778 237° Southwest 273 314 9,400 -1,537 Descending Minneapolis Center
Sun 09:50:41 AM 44.9500 -92.5617 236° Southwest 261 300 7,800 -1,190 Descending Minneapolis Center
Sun 09:51:42 AM 44.9106 -92.6442 236° Southwest 254 292 7,000 -393 Descending Minneapolis Center
Sun 09:52:43 AM 44.8714 -92.7242 235° Southwest 250 288 7,000 -246 Level Minneapolis Center
Sun 09:53:44 AM 44.8367 -92.7961 236° Southwest 226 260 6,500 -934 Descending Minneapolis Center
Sun 09:54:45 AM 44.8036 -92.8647 236° Southwest 215 247 5,100 -1,230 Descending Minneapolis Center
Sun 09:55:46 AM 44.8064 -92.9414 273° West 208 239 4,000 -984 Descending Minneapolis Center
Sun 09:56:47 AM 44.8186 -93.0228 282° West 213 245 3,100 -639 Descending Minneapolis Center
Sun 09:57:48 AM 44.8378 -93.0939 291° West 160 184 2,700 -590 Descending Minneapolis Center
Sun 09:58:49 AM 44.8553 -93.1344 301° West 125 144 1,900 -689 Descending Minneapolis Center
Sun 09:59:50 AM 44.8725 -93.1731 302° West 118 136 1,300 -590 Descending Minneapolis Center
Sun 10:01:00 AM 44.8667 -93.2167 245° Southwest  Level FlightAware Approximate
Sun 10:08:00 AM 44.8820 -93.2218 245° Southwest  Level Estimated

Login

Don't have an account? Register now (free) for customized features, flight alerts, and more!